Time;durP1;ratioP1;P1;durP2;ratioP2;P2;SDS_P1;SDS_P2;PMS_P1;PMS_P2;Temp;Humidity;BMP_temperature;BMP_pressure;BME280_temperature;BME280_humidity;BME280_pressure;Samples;Min_cycle;Max_cycle;Signal;HPM_P1;HPM_P2
2022/10/19 00:01:06;;;;;;;21.65;11.55;;;;;;;10.62;53.87;99329.80;1713929;83;21547;-43
2022/10/19 00:03:34;;;;;;;23.30;12.45;;;;;;;10.58;53.93;99325.69;1713773;81;21020;-43
2022/10/19 00:06:12;;;;;;;23.35;11.85;;;;;;;10.55;54.03;99314.22;1713436;83;21092;-43
2022/10/19 00:08:39;;;;;;;25.82;11.73;;;;;;;10.50;54.14;99322.64;1713560;82;21037;-42
2022/10/19 00:11:06;;;;;;;21.95;11.57;;;;;;;10.46;54.24;99314.42;1713573;83;21251;-42
2022/10/19 00:13:34;;;;;;;20.90;11.25;;;;;;;10.43;54.40;99310.30;1713520;83;20969;-43
2022/10/19 00:16:01;;;;;;;21.95;11.22;;;;;;;10.42;54.45;99306.02;1713489;83;21016;-42
2022/10/19 00:19:12;;;;;;;21.15;11.90;;;;;;;10.45;54.52;99294.48;1797219;79;22643;-43
2022/10/19 00:21:39;;;;;;;20.02;11.73;;;;;;;10.38;54.60;99297.83;1757030;81;20957;-43
2022/10/19 00:24:09;;;;;;;21.27;12.45;;;;;;;10.36;54.62;99302.05;1757016;81;21230;-43
2022/10/19 00:26:37;;;;;;;23.55;12.78;;;;;;;10.33;54.66;99297.33;1757223;81;20922;-43
2022/10/19 00:29:05;;;;;;;24.32;12.13;;;;;;;10.31;54.75;99292.86;1757020;81;20965;-43
2022/10/19 00:31:31;;;;;;;19.35;11.85;;;;;;;10.27;54.82;99287.36;1757140;81;21499;-43
2022/10/19 00:33:58;;;;;;;22.02;12.25;;;;;;;10.26;54.95;99286.38;1756915;81;22032;-43
2022/10/19 00:36:29;;;;;;;21.30;12.18;;;;;;;10.23;55.04;99277.59;1757141;81;21194;-43
2022/10/19 00:38:57;;;;;;;23.80;11.53;;;;;;;10.20;55.12;99273.69;1756932;81;20977;-43
2022/10/19 00:41:28;;;;;;;22.55;11.38;;;;;;;10.18;55.28;99272.47;1756979;81;20973;-43
2022/10/19 00:44:02;;;;;;;19.30;11.83;;;;;;;10.16;55.29;99263.94;1757072;81;21017;-43
2022/10/19 00:46:32;;;;;;;21.33;11.90;;;;;;;10.12;55.40;99257.64;1756235;81;21017;-43
2022/10/19 00:49:04;;;;;;;18.02;11.70;;;;;;;10.10;55.54;99254.48;1757171;81;21221;-43
2022/10/19 00:51:31;;;;;;;21.12;11.90;;;;;;;10.08;55.62;99252.70;1749541;81;21013;-42
2022/10/19 00:54:00;;;;;;;22.20;11.38;;;;;;;10.07;55.65;99256.58;1738075;81;21033;-42
2022/10/19 00:56:26;;;;;;;19.62;11.53;;;;;;;10.03;55.82;99247.79;1757043;81;20969;-42
2022/10/19 00:58:55;;;;;;;22.30;12.25;;;;;;;10.00;55.90;99240.39;1756968;81;21017;-43
2022/10/19 01:01:21;;;;;;;19.00;11.70;;;;;;;9.97;56.00;99238.37;1751925;81;21139;-43
2022/10/19 01:03:48;;;;;;;21.45;11.30;;;;;;;9.94;56.14;99237.75;1756866;81;21004;-42
2022/10/19 01:06:16;;;;;;;25.43;10.78;;;;;;;9.92;56.27;99228.44;1757011;81;21052;-42
2022/10/19 01:08:44;;;;;;;21.40;11.18;;;;;;;9.89;56.34;99227.20;1757083;81;21013;-42
2022/10/19 01:11:50;;;;;;;20.25;10.88;;;;;;;9.88;56.36;99226.99;1757180;81;21021;-42
2022/10/19 01:14:41;;;;;;;19.37;10.82;;;;;;;9.86;56.45;99221.16;1757006;81;20961;-42
2022/10/19 01:17:46;;;;;;;17.67;10.95;;;;;;;9.80;56.63;99224.51;1756204;81;21578;-43
2022/10/19 01:20:42;;;;;;;17.85;10.20;;;;;;;9.74;56.82;99215.09;1744281;82;21523;-43
2022/10/19 01:23:39;;;;;;;19.40;10.15;;;;;;;9.70;56.97;99212.89;1735829;82;21519;-43
2022/10/19 01:26:43;;;;;;;16.32;9.60;;;;;;;9.68;57.14;99215.20;1744144;82;20998;-42
2022/10/19 01:29:33;;;;;;;18.00;10.05;;;;;;;9.65;57.32;99209.91;1730792;82;21512;-43
2022/10/19 01:32:14;;;;;;;15.48;9.43;;;;;;;9.64;57.55;99202.14;1743173;81;21525;-43
2022/10/19 01:34:55;;;;;;;14.87;9.13;;;;;;;9.63;57.72;99202.73;1723481;82;20969;-43
2022/10/19 01:37:43;;;;;;;24.18;10.25;;;;;;;9.63;57.85;99201.37;1743195;81;20938;-42
2022/10/19 01:40:24;;;;;;;17.77;9.45;;;;;;;9.65;57.89;99196.38;1743411;82;20989;-42
2022/10/19 01:43:08;;;;;;;18.77;9.10;;;;;;;9.68;57.99;99190.83;1743626;81;21666;-42
2022/10/19 01:45:51;;;;;;;14.60;8.40;;;;;;;9.69;58.02;99191.02;1703862;83;21538;-43
2022/10/19 01:48:22;;;;;;;21.07;9.33;;;;;;;9.70;58.11;99187.97;1707768;84;20977;-42
2022/10/19 01:51:05;;;;;;;18.82;8.85;;;;;;;9.73;58.20;99193.25;1707731;84;21072;-42
2022/10/19 01:53:41;;;;;;;18.92;8.73;;;;;;;9.75;58.24;99178.20;1707622;84;21009;-43
2022/10/19 01:56:09;;;;;;;16.50;9.48;;;;;;;9.77;58.32;99181.34;1707584;84;21147;-43
2022/10/19 01:58:36;;;;;;;15.25;9.35;;;;;;;9.79;58.31;99173.64;1707451;84;20942;-42
2022/10/19 02:01:06;;;;;;;19.20;9.50;;;;;;;9.81;58.38;99170.02;1707597;84;21024;-43
2022/10/19 02:03:34;;;;;;;15.72;9.48;;;;;;;9.82;58.42;99163.46;1707647;84;21056;-42
2022/10/19 02:06:03;;;;;;;16.52;9.18;;;;;;;9.83;58.50;99165.58;1707467;84;21025;-43
2022/10/19 02:08:37;;;;;;;17.77;9.43;;;;;;;9.83;58.60;99162.30;1707647;84;21170;-42
2022/10/19 02:11:05;;;;;;;15.35;8.83;;;;;;;9.83;58.69;99160.16;1704012;82;21521;-42
2022/10/19 02:13:33;;;;;;;15.08;9.13;;;;;;;9.85;58.73;99161.38;1662558;85;20997;-42
2022/10/19 02:16:04;;;;;;;17.73;8.80;;;;;;;9.86;58.83;99173.78;1699804;84;21614;-42
2022/10/19 02:18:38;;;;;;;14.65;9.25;;;;;;;9.87;58.89;99169.94;1697668;83;21068;-42
2022/10/19 02:21:06;;;;;;;19.02;9.83;;;;;;;9.88;58.97;99172.05;1710083;83;21151;-42
2022/10/19 02:23:34;;;;;;;21.23;10.30;;;;;;;9.88;59.12;99166.06;1700353;84;20945;-42
2022/10/19 02:26:00;;;;;;;18.27;9.28;;;;;;;9.90;59.30;99169.21;1710267;83;21024;-42
2022/10/19 02:28:28;;;;;;;16.75;9.13;;;;;;;9.92;59.35;99165.55;1700482;84;21044;-42
2022/10/19 02:30:55;;;;;;;17.48;9.38;;;;;;;9.95;59.33;99168.13;1710107;83;22037;-42
2022/10/19 02:33:21;;;;;;;15.83;10.18;;;;;;;9.98;59.41;99164.13;1700443;84;21148;-42
2022/10/19 02:35:48;;;;;;;21.23;9.88;;;;;;;10.03;59.43;99172.52;1684709;85;20997;-42
2022/10/19 02:38:19;;;;;;;16.12;8.93;;;;;;;10.13;59.49;99172.50;1710028;83;21040;-42
2022/10/19 02:41:06;;;;;;;20.65;10.82;;;;;;;10.23;59.67;99171.94;1700631;84;20981;-42
2022/10/19 02:43:36;;;;;;;22.85;10.30;;;;;;;10.35;59.66;99166.34;1691010;84;21583;-42
2022/10/19 02:46:26;;;;;;;14.18;9.43;;;;;;;10.42;59.68;99169.16;1697811;84;21102;-42
2022/10/19 02:48:55;;;;;;;16.37;9.60;;;;;;;10.46;59.64;99169.42;1697481;84;21029;-42
2022/10/19 02:51:40;;;;;;;15.45;9.58;;;;;;;10.50;59.64;99163.30;1697758;84;20965;-42
2022/10/19 02:54:07;;;;;;;20.23;10.45;;;;;;;10.55;59.65;99164.34;1682046;84;21064;-42
2022/10/19 02:56:34;;;;;;;16.35;10.15;;;;;;;10.59;59.71;99159.19;1697510;84;20996;-42
2022/10/19 02:59:02;;;;;;;16.37;10.68;;;;;;;10.64;59.86;99154.03;1697292;84;23182;-42
2022/10/19 03:01:29;;;;;;;19.60;10.88;;;;;;;10.66;59.99;99143.58;1697808;84;21241;-42
2022/10/19 03:03:55;;;;;;;17.60;10.03;;;;;;;9.41;60.04;98950.45;1697696;84;21507;-42
2022/10/19 03:06:22;;;;;;;18.30;10.58;;;;;;;10.72;60.29;99141.56;1697466;84;21109;-42
2022/10/19 03:08:50;;;;;;;22.50;11.28;;;;;;;10.74;60.41;99133.85;1697462;84;21668;-42
2022/10/19 03:11:18;;;;;;;17.82;11.48;;;;;;;10.77;60.54;99135.04;1697310;84;23179;-43
2022/10/19 03:13:46;;;;;;;18.00;10.38;;;;;;;10.79;60.66;99128.12;1697470;84;20977;-42
2022/10/19 03:16:13;;;;;;;19.77;10.88;;;;;;;10.85;60.67;99134.77;1697450;84;20988;-42
2022/10/19 03:18:41;;;;;;;17.57;10.18;;;;;;;10.95;60.67;99121.72;1693089;83;21033;-42
2022/10/19 03:21:11;;;;;;;16.25;10.82;;;;;;;11.05;60.62;99119.72;1687413;85;21097;-42
2022/10/19 03:23:38;;;;;;;19.98;11.08;;;;;;;11.08;60.61;99120.36;1687475;85;21218;-43
2022/10/19 03:26:06;;;;;;;18.75;10.55;;;;;;;11.12;60.56;99106.27;1687230;85;21001;-42
2022/10/19 03:28:33;;;;;;;19.20;10.70;;;;;;;11.16;60.50;99107.87;1687424;85;21093;-42
2022/10/19 03:31:02;;;;;;;18.95;11.28;;;;;;;11.20;60.45;99107.91;1687222;85;21472;-42
2022/10/19 03:33:29;;;;;;;18.85;10.93;;;;;;;11.24;60.46;99114.94;1687393;85;21097;-42
2022/10/19 03:36:20;;;;;;;15.08;10.35;;;;;;;11.26;60.44;99118.07;1687331;85;21135;-42
2022/10/19 03:38:53;;;;;;;19.57;11.08;;;;;;;11.28;60.48;99113.61;1679969;85;21057;-42
2022/10/19 03:41:22;;;;;;;20.82;11.20;;;;;;;11.28;60.58;99117.68;1687290;85;21099;-42
2022/10/19 03:43:48;;;;;;;22.20;10.80;;;;;;;11.30;60.61;99128.95;1687349;85;21048;-42
2022/10/19 03:46:15;;;;;;;18.35;10.58;;;;;;;11.30;60.87;99132.45;1699804;84;21088;-42
2022/10/19 03:48:43;;;;;;;16.82;11.30;;;;;;;11.27;60.91;99126.42;1699833;84;21009;-42
2022/10/19 03:51:14;;;;;;;21.37;11.30;;;;;;;11.28;61.03;99136.67;1694987;84;21081;-42
2022/10/19 03:53:42;;;;;;;21.12;11.12;;;;;;;11.30;61.06;99146.60;1694899;84;21021;-42
2022/10/19 03:56:14;;;;;;;18.25;10.88;;;;;;;11.36;61.17;99153.27;1695095;84;21005;-42
2022/10/19 03:58:42;;;;;;;22.35;12.85;;;;;;;11.38;61.50;99155.03;1695081;84;20993;-42
2022/10/19 04:01:16;;;;;;;20.02;11.93;;;;;;;11.37;61.73;99153.48;1695081;84;21146;-43
2022/10/19 04:03:43;;;;;;;21.02;11.80;;;;;;;11.34;61.94;99159.06;1694977;84;21562;-42
2022/10/19 04:06:15;;;;;;;20.90;12.50;;;;;;;11.36;62.20;99164.70;1694846;84;21029;-42
2022/10/19 04:08:43;;;;;;;18.85;12.28;;;;;;;11.36;62.45;99156.56;1694923;84;21086;-42
2022/10/19 04:11:12;;;;;;;22.62;13.35;;;;;;;11.38;62.62;99156.38;1695027;84;21518;-43
2022/10/19 04:13:40;;;;;;;21.10;12.23;;;;;;;11.44;63.01;99145.41;1694996;84;21246;-42
2022/10/19 04:16:08;;;;;;;20.45;12.43;;;;;;;11.54;63.01;99146.11;1694879;84;20985;-42
2022/10/19 04:18:35;;;;;;;23.57;14.05;;;;;;;11.68;63.19;99146.27;1696069;83;21067;-43
2022/10/19 04:21:04;;;;;;;23.42;14.43;;;;;;;11.83;63.70;99147.23;1709934;84;21005;-43
2022/10/19 04:23:34;;;;;;;24.52;14.50;;;;;;;11.90;64.30;99135.09;1666687;85;20995;-42
2022/10/19 04:26:06;;;;;;;23.20;13.80;;;;;;;11.99;64.42;99121.20;1692777;84;21246;-43
2022/10/19 04:28:33;;;;;;;24.05;14.43;;;;;;;12.08;64.74;99116.23;1697607;84;21538;-42
2022/10/19 04:31:04;;;;;;;22.10;13.70;;;;;;;12.12;65.21;99127.91;1697347;84;21044;-42
2022/10/19 04:33:33;;;;;;;24.90;14.33;;;;;;;12.17;65.60;99143.88;1697608;84;21562;-42
2022/10/19 04:36:03;;;;;;;23.62;14.50;;;;;;;12.25;65.72;99149.56;1697368;84;21610;-42
2022/10/19 04:38:30;;;;;;;;;;;;;;;12.34;66.20;99147.91;1699877;84;22169;-42
2022/10/19 04:41:11;;;;;;;22.52;13.95;;;;;;;12.36;66.45;99145.58;1697194;84;20182;-42
2022/10/19 04:43:38;;;;;;;25.85;14.93;;;;;;;12.25;67.03;99146.84;1697682;84;20969;-42
2022/10/19 04:46:15;;;;;;;24.07;15.75;;;;;;;12.27;67.30;99144.55;1697284;84;21096;-42
2022/10/19 04:48:42;;;;;;;21.52;14.68;;;;;;;12.28;67.49;99152.12;1697586;84;21013;-42
2022/10/19 04:51:09;;;;;;;24.55;14.03;;;;;;;12.32;67.83;99158.37;1697278;84;21140;-43
2022/10/19 04:53:37;;;;;;;23.77;14.47;;;;;;;12.37;67.86;99166.96;1697347;84;21069;-42
2022/10/19 04:56:06;;;;;;;24.63;15.30;;;;;;;12.42;68.18;99174.77;1697271;84;21613;-42
2022/10/19 04:58:33;;;;;;;26.07;15.08;;;;;;;12.37;68.42;99164.82;1697564;84;21295;-42
2022/10/19 05:01:13;;;;;;;23.62;15.30;;;;;;;12.34;68.53;99171.02;1697262;84;21559;-42
2022/10/19 05:03:40;;;;;;;23.27;14.60;;;;;;;12.32;68.76;99171.38;1697551;84;21574;-43
2022/10/19 05:06:07;;;;;;;23.02;14.65;;;;;;;12.35;68.83;99150.23;1697359;84;20937;-42
2022/10/19 05:08:34;;;;;;;24.72;16.07;;;;;;;12.45;68.73;99152.27;1697565;84;21056;-42
2022/10/19 05:11:08;;;;;;;26.02;15.18;;;;;;;12.56;68.70;99165.95;1697364;84;21068;-43
2022/10/19 05:13:36;;;;;;;22.35;16.00;;;;;;;12.56;68.84;99164.01;1697735;84;20949;-43
2022/10/19 05:16:06;;;;;;;26.20;15.93;;;;;;;12.52;68.99;99157.77;1697660;84;21234;-43
2022/10/19 05:18:34;;;;;;;24.80;15.45;;;;;;;12.50;69.33;99183.19;1698935;83;20984;-43
2022/10/19 05:21:12;;;;;;;20.27;14.33;;;;;;;12.47;69.52;99185.30;1720659;83;21024;-43
2022/10/19 05:23:40;;;;;;;20.70;13.78;;;;;;;12.49;69.80;99202.01;1686319;85;21094;-42
2022/10/19 05:26:11;;;;;;;23.05;14.47;;;;;;;12.51;70.07;99211.16;1686370;85;21004;-42
2022/10/19 05:28:40;;;;;;;23.85;14.18;;;;;;;12.47;70.44;99212.49;1686343;85;21008;-42
2022/10/19 05:31:13;;;;;;;24.75;13.70;;;;;;;12.42;70.59;99197.88;1702496;84;21851;-43
2022/10/19 05:33:40;;;;;;;18.48;11.18;;;;;;;12.44;70.79;99193.44;1702571;84;21029;-42
2022/10/19 05:36:20;;;;;;;20.68;11.22;;;;;;;12.49;70.86;99195.81;1702301;84;20993;-42
2022/10/19 05:38:49;;;;;;;19.52;12.07;;;;;;;12.60;70.77;99193.95;1702565;84;21053;-42
2022/10/19 05:41:16;;;;;;;16.67;11.28;;;;;;;12.72;70.60;99201.04;1702320;84;21219;-42
2022/10/19 05:43:43;;;;;;;16.93;10.28;;;;;;;12.77;70.37;99211.57;1720860;83;20953;-43
2022/10/19 05:46:12;;;;;;;15.23;11.08;;;;;;;12.80;70.04;99228.49;1686510;85;21012;-42
2022/10/19 05:48:39;;;;;;;13.95;8.63;;;;;;;12.79;69.85;99224.20;1686886;85;21058;-43
2022/10/19 05:51:07;;;;;;;14.07;9.45;;;;;;;12.83;69.64;99220.95;1702450;84;21005;-42
2022/10/19 05:53:35;;;;;;;14.03;9.55;;;;;;;12.93;69.40;99217.50;1721020;82;25263;-42
2022/10/19 05:56:07;;;;;;;19.35;9.05;;;;;;;12.99;69.16;99222.22;1687818;84;20959;-43
2022/10/19 05:58:35;;;;;;;11.75;7.72;;;;;;;13.02;68.84;99230.22;1691812;84;21513;-43
2022/10/19 06:01:04;;;;;;;10.65;6.00;;;;;;;12.97;68.34;99234.66;1691768;84;21585;-42
2022/10/19 06:03:31;;;;;;;9.30;5.78;;;;;;;12.93;68.20;99236.55;1692180;84;21075;-43
2022/10/19 06:06:00;;;;;;;8.35;4.72;;;;;;;12.91;67.89;99226.64;1686451;83;21258;-43
2022/10/19 06:08:27;;;;;;;8.80;5.13;;;;;;;12.92;67.65;99230.35;1647712;84;20945;-42
2022/10/19 06:11:08;;;;;;;7.30;4.33;;;;;;;12.98;67.48;99232.90;1722346;82;20948;-43
2022/10/19 06:13:36;;;;;;;5.25;4.45;;;;;;;13.06;67.34;99243.27;1720634;83;21123;-42
2022/10/19 06:16:06;;;;;;;8.30;4.90;;;;;;;13.06;67.13;99243.27;1722118;82;21003;-41
2022/10/19 06:18:33;;;;;;;7.17;5.10;;;;;;;13.04;67.19;99242.86;1725980;82;21108;-42
2022/10/19 06:21:03;;;;;;;9.30;4.70;;;;;;;13.03;67.23;99250.23;1750529;81;21000;-41
2022/10/19 06:23:32;;;;;;;5.60;4.40;;;;;;;13.00;67.34;99248.86;1709531;83;21033;-42
2022/10/19 06:26:02;;;;;;;6.45;4.65;;;;;;;12.97;67.52;99246.30;1747775;82;21036;-41
2022/10/19 06:28:29;;;;;;;5.42;4.60;;;;;;;13.05;67.44;99248.51;1719362;82;21020;-42
2022/10/19 06:30:57;;;;;;;7.53;4.72;;;;;;;13.11;67.28;99256.56;1705605;83;21121;-41
2022/10/19 06:33:26;;;;;;;6.60;4.60;;;;;;;13.11;67.34;99264.72;1707352;83;21093;-42
2022/10/19 06:35:53;;;;;;;5.35;3.70;;;;;;;13.11;67.39;99270.17;1702380;84;21401;-42
2022/10/19 06:38:19;;;;;;;4.80;3.05;;;;;;;13.10;67.23;99268.57;1703171;84;21350;-41
2022/10/19 06:40:47;;;;;;;4.85;2.72;;;;;;;13.10;67.12;99271.87;1731303;82;21005;-42
2022/10/19 06:43:16;;;;;;;4.12;2.40;;;;;;;13.13;66.88;99282.02;1723879;82;20933;-41
2022/10/19 06:45:44;;;;;;;4.25;2.10;;;;;;;13.18;66.95;99285.17;1720359;83;21597;-42
2022/10/19 06:48:10;;;;;;;3.17;2.12;;;;;;;13.18;66.63;99279.73;1720228;83;21514;-42
2022/10/19 06:50:41;;;;;;;3.60;2.25;;;;;;;13.20;66.46;99282.86;1724153;82;20961;-42
2022/10/19 06:53:08;;;;;;;3.17;2.60;;;;;;;13.23;66.32;99284.04;1669042;83;21515;-42
2022/10/19 06:55:35;;;;;;;2.90;2.12;;;;;;;13.25;66.06;99286.59;1714780;83;21239;-41
2022/10/19 06:58:02;;;;;;;4.20;1.90;;;;;;;13.19;65.95;99284.02;1731755;82;21442;-41
2022/10/19 07:00:30;;;;;;;3.60;2.25;;;;;;;13.20;66.14;99283.44;1732250;82;21050;-41
2022/10/19 07:03:00;;;;;;;2.83;1.82;;;;;;;13.24;66.12;99282.30;1751411;82;21491;-42
2022/10/19 07:05:27;;;;;;;3.27;2.20;;;;;;;13.26;66.10;99273.77;1751346;82;21021;-41
2022/10/19 07:07:57;;;;;;;2.92;1.70;;;;;;;13.29;66.34;99273.00;1751239;82;23146;-41
2022/10/19 07:10:25;;;;;;;2.27;1.80;;;;;;;13.32;65.72;99278.46;1751480;82;21028;-41
2022/10/19 07:12:55;;;;;;;1.85;1.60;;;;;;;13.30;65.42;99282.16;1751175;82;20973;-41
2022/10/19 07:15:22;;;;;;;1.98;1.40;;;;;;;13.30;65.10;99284.88;1751352;82;21813;-41
2022/10/19 07:17:49;;;;;;;3.60;1.50;;;;;;;13.32;64.91;99283.91;1751358;82;21073;-41
2022/10/19 07:20:18;;;;;;;2.25;1.27;;;;;;;13.43;64.76;99275.81;1713874;83;20970;-41
2022/10/19 07:22:45;;;;;;;1.35;1.00;;;;;;;13.54;64.34;99279.39;1724435;83;21010;-42
2022/10/19 07:25:12;;;;;;;1.30;0.95;;;;;;;13.58;63.85;99273.95;1705172;82;21072;-42
2022/10/19 07:27:39;;;;;;;3.90;1.20;;;;;;;13.62;63.77;99285.06;1721513;82;21530;-43
2022/10/19 07:30:07;;;;;;;1.40;1.20;;;;;;;13.64;63.75;99281.39;1757327;80;21618;-43
2022/10/19 07:32:34;;;;;;;1.85;1.10;;;;;;;13.64;63.50;99281.39;1744083;80;21204;-43
2022/10/19 07:35:02;;;;;;;2.85;1.22;;;;;;;13.57;63.12;99279.97;1752858;81;21533;-43
2022/10/19 07:37:30;;;;;;;1.95;1.10;;;;;;;13.45;63.41;99275.64;1742477;81;20917;-43
2022/10/19 07:39:57;;;;;;;2.20;1.00;;;;;;;13.40;63.87;99280.09;1751506;80;20968;-42
2022/10/19 07:42:24;;;;;;;2.02;1.00;;;;;;;13.40;63.75;99284.75;1769107;80;21039;-42
2022/10/19 07:44:50;;;;;;;3.47;1.30;;;;;;;13.33;63.81;99282.75;1735568;82;21286;-43
2022/10/19 07:47:17;;;;;;;2.92;1.07;;;;;;;13.24;64.15;99285.61;1734935;82;21090;-43
2022/10/19 07:49:44;;;;;;;1.60;1.00;;;;;;;13.17;64.48;99284.97;1742475;80;21513;-43
2022/10/19 07:52:10;;;;;;;2.80;1.00;;;;;;;13.13;64.66;99286.88;1762464;80;21448;-43
2022/10/19 07:54:37;;;;;;;2.95;1.20;;;;;;;13.10;64.68;99283.54;1732250;80;21012;-43
2022/10/19 07:57:03;;;;;;;1.17;1.02;;;;;;;13.06;64.78;99286.81;1745340;82;21133;-43
2022/10/19 07:59:30;;;;;;;1.80;1.02;;;;;;;13.07;64.96;99282.91;1745459;82;20910;-42
2022/10/19 08:02:01;;;;;;;2.90;1.30;;;;;;;13.16;64.74;99284.79;1740821;82;21001;-42
2022/10/19 08:04:27;;;;;;;2.08;1.20;;;;;;;13.21;64.29;99284.44;1775277;80;21591;-42
2022/10/19 08:06:54;;;;;;;2.58;1.32;;;;;;;13.22;63.83;99282.47;1779072;80;21463;-42
2022/10/19 08:09:21;;;;;;;2.25;1.42;;;;;;;13.21;63.95;99279.56;1735100;80;21236;-42
2022/10/19 08:11:49;;;;;;;2.05;1.40;;;;;;;13.20;63.84;99274.70;1742410;82;21049;-42
2022/10/19 08:14:16;;;;;;;2.25;1.40;;;;;;;13.19;64.07;99266.33;1742516;82;21512;-43
2022/10/19 08:16:43;;;;;;;4.00;1.70;;;;;;;13.21;64.22;99264.59;1745336;81;21185;-43
2022/10/19 08:19:13;;;;;;;2.25;1.70;;;;;;;13.17;63.87;99266.52;1766810;80;20973;-43
2022/10/19 08:21:42;;;;;;;;;;;;;;;13.14;64.06;99266.67;1772219;80;21101;-43
2022/10/19 08:24:10;;;;;;;1.85;1.35;;;;;;;13.11;64.04;99260.64;1756197;81;20295;-43
2022/10/19 08:26:38;;;;;;;2.93;1.53;;;;;;;12.96;64.29;99267.89;1757853;80;21092;-42
2022/10/19 08:29:15;;;;;;;2.20;1.47;;;;;;;12.93;64.46;99264.54;1692773;83;21047;-42
2022/10/19 08:31:46;;;;;;;3.08;1.52;;;;;;;12.90;64.47;99268.03;1694370;83;21044;-43
2022/10/19 08:34:14;;;;;;;2.40;1.50;;;;;;;12.88;64.21;99274.98;1721361;83;21091;-43
2022/10/19 08:36:42;;;;;;;6.87;1.60;;;;;;;12.88;64.16;99262.74;1688309;83;20945;-43
2022/10/19 08:39:16;;;;;;;1.95;1.27;;;;;;;12.88;64.25;99266.83;1756306;80;21006;-43
2022/10/19 08:42:00;;;;;;;;;;;;;;;12.90;64.49;99262.59;1752735;80;21031;-45
2022/10/19 08:45:09;;;;;;;2.77;1.50;;;;;;;12.97;64.42;99261.87;1752527;80;20190;-45
2022/10/19 08:47:54;;;;;;;3.83;1.30;;;;;;;12.92;64.38;99250.76;1622573;85;21045;-47
2022/10/19 08:50:31;;;;;;;4.28;1.27;;;;;;;12.95;63.73;99239.11;1686925;82;20972;-46
2022/10/19 08:53:03;;;;;;;4.15;1.70;;;;;;;13.00;63.69;99229.81;1706545;83;20990;-46
2022/10/19 08:55:55;;;;;;;2.62;1.30;;;;;;;13.06;63.40;99240.55;1714037;83;21527;-47
2022/10/19 08:59:12;;;;;;;3.15;1.50;;;;;;;13.15;62.93;99241.03;1706033;82;20999;-47
2022/10/19 09:01:57;;;;;;;5.08;1.50;;;;;;;13.21;62.70;99239.52;1710317;83;21807;-47
2022/10/19 09:04:34;;;;;;;5.90;2.15;;;;;;;13.28;62.55;99240.13;1683842;83;20985;-46
2022/10/19 09:07:28;;;;;;;3.83;2.27;;;;;;;13.37;62.50;99241.34;1710149;83;20997;-46
2022/10/19 09:09:59;;;;;;;3.60;1.90;;;;;;;13.48;62.06;99242.20;1707818;82;21093;-47
2022/10/19 09:12:48;;;;;;;3.90;1.92;;;;;;;13.58;62.04;99245.34;1717110;82;21403;-45
2022/10/19 09:15:18;;;;;;;4.47;2.22;;;;;;;13.67;61.32;99233.52;1722666;82;21231;-46
2022/10/19 09:17:46;;;;;;;3.90;2.10;;;;;;;13.68;61.41;99237.81;1708279;83;21029;-47
2022/10/19 09:20:32;;;;;;;5.67;2.05;;;;;;;13.74;61.37;99237.64;1711096;83;21631;-47
2022/10/19 09:23:22;;;;;;;2.55;1.98;;;;;;;13.79;60.83;99242.15;1712847;82;21026;-47
2022/10/19 09:25:50;;;;;;;3.80;2.25;;;;;;;13.79;60.80;99236.70;1697488;83;21105;-46
2022/10/19 09:28:31;;;;;;;8.55;3.02;;;;;;;13.79;61.14;99235.34;1701891;82;23146;-47
2022/10/19 09:30:58;;;;;;;5.33;2.40;;;;;;;13.83;61.04;99230.68;1693557;84;21066;-47
2022/10/19 09:33:33;;;;;;;3.72;2.60;;;;;;;13.84;60.55;99219.20;1700124;82;20980;-47
2022/10/19 09:36:02;;;;;;;4.72;3.00;;;;;;;13.85;60.18;99218.02;1701867;82;21021;-47
2022/10/19 09:38:30;;;;;;;6.62;3.25;;;;;;;13.86;60.33;99219.58;1717312;82;21014;-47
2022/10/19 09:41:07;;;;;;;6.15;3.02;;;;;;;13.94;60.27;99215.73;1721212;82;21264;-47
2022/10/19 09:43:34;;;;;;;5.72;2.42;;;;;;;13.95;59.25;99217.27;1705286;82;21005;-46
2022/10/19 09:46:14;;;;;;;3.58;1.50;;;;;;;13.92;59.40;99222.92;1716338;82;21092;-44
2022/10/19 09:48:49;;;;;;;2.40;1.77;;;;;;;13.89;59.47;99222.91;1722381;82;21093;-45
2022/10/19 09:51:16;;;;;;;2.52;1.35;;;;;;;13.89;59.44;99214.73;1711761;82;21010;-45
2022/10/19 09:53:53;;;;;;;3.02;1.40;;;;;;;13.90;59.53;99213.55;1701717;82;21259;-46
2022/10/19 09:56:25;;;;;;;1.50;1.27;;;;;;;13.98;59.74;99213.80;1702994;82;21023;-45
2022/10/19 09:58:56;;;;;;;5.25;1.35;;;;;;;14.11;59.37;99217.71;1700949;83;21550;-45
2022/10/19 10:01:37;;;;;;;1.77;1.10;;;;;;;14.21;58.46;99219.68;1725205;82;21583;-45
2022/10/19 10:04:13;;;;;;;1.67;1.27;;;;;;;14.21;58.57;99215.59;1724806;82;21084;-45
2022/10/19 10:06:43;;;;;;;3.08;1.35;;;;;;;14.21;58.62;99210.72;1751190;80;23167;-46
2022/10/19 10:09:17;;;;;;;4.17;1.30;;;;;;;14.24;58.59;99214.81;1745441;80;20883;-46
2022/10/19 10:11:46;;;;;;;3.12;1.60;;;;;;;14.27;58.21;99200.42;1749586;81;21069;-46
2022/10/19 10:14:38;;;;;;;2.02;1.22;;;;;;;14.34;57.79;99207.23;1729760;80;21024;-46
2022/10/19 10:17:13;;;;;;;2.47;1.40;;;;;;;14.42;57.55;99199.09;1756647;81;21028;-47
2022/10/19 10:20:00;;;;;;;3.75;1.85;;;;;;;14.52;56.50;99196.38;1739628;80;21087;-47
2022/10/19 10:22:35;;;;;;;3.90;1.72;;;;;;;14.64;54.66;99195.20;1735571;81;21534;-47
2022/10/19 10:25:12;;;;;;;3.67;1.72;;;;;;;14.75;54.39;99205.53;1726547;81;21084;-46
2022/10/19 10:27:39;;;;;;;7.22;1.50;;;;;;;14.85;53.34;99199.88;1735040;81;21036;-45
2022/10/19 10:30:09;;;;;;;2.62;1.70;;;;;;;14.86;53.52;99195.98;1704780;82;21036;-45
2022/10/19 10:32:38;;;;;;;2.42;1.50;;;;;;;14.79;53.66;99191.30;1743790;82;21962;-45
2022/10/19 10:35:09;;;;;;;3.10;1.67;;;;;;;14.72;53.88;99194.02;1731834;82;21238;-45
2022/10/19 10:37:40;;;;;;;2.83;1.72;;;;;;;14.60;53.58;99188.38;1748988;80;21087;-45
2022/10/19 10:40:24;;;;;;;3.55;1.52;;;;;;;14.50;53.34;99190.52;1726021;82;21083;-45
2022/10/19 10:42:53;;;;;;;3.83;1.70;;;;;;;14.44;53.03;99183.11;1712502;83;21400;-45
2022/10/19 10:45:32;;;;;;;2.72;1.60;;;;;;;14.49;53.66;99173.17;1712787;83;21171;-43
2022/10/19 10:48:15;;;;;;;3.42;2.12;;;;;;;14.64;54.08;99165.19;1719045;83;20972;-42
2022/10/19 10:50:42;;;;;;;4.85;2.10;;;;;;;14.75;53.49;99165.96;1718667;83;20960;-43
2022/10/19 10:53:34;;;;;;;4.90;2.15;;;;;;;14.79;53.65;99159.91;1734136;80;21021;-43
2022/10/19 10:56:01;;;;;;;3.22;1.60;;;;;;;14.80;53.04;99157.38;1748877;80;21091;-43
2022/10/19 10:58:42;;;;;;;3.75;1.77;;;;;;;14.69;52.10;99157.39;1744962;80;21249;-43
2022/10/19 11:01:21;;;;;;;2.87;1.82;;;;;;;14.59;52.84;99162.84;1724161;83;21044;-42
2022/10/19 11:03:59;;;;;;;2.20;1.80;;;;;;;14.48;52.91;99150.56;1743210;81;21267;-42
2022/10/19 11:06:26;;;;;;;3.02;1.87;;;;;;;14.42;53.49;99151.37;1771294;81;20930;-42
2022/10/19 11:09:16;;;;;;;4.10;2.08;;;;;;;14.38;53.69;99146.50;1771865;80;21023;-42
2022/10/19 11:11:45;;;;;;;2.30;1.60;;;;;;;14.45;53.71;99143.17;1767358;81;21142;-41
2022/10/19 11:14:44;;;;;;;4.30;2.00;;;;;;;14.68;53.97;99142.76;1766359;80;21550;-41
2022/10/19 11:17:26;;;;;;;3.08;1.72;;;;;;;14.99;53.24;99132.97;1747234;81;20961;-41
2022/10/19 11:19:53;;;;;;;2.10;1.55;;;;;;;15.34;51.74;99132.08;1770216;80;21045;-41
2022/10/19 11:22:42;;;;;;;4.15;1.62;;;;;;;15.52;50.76;99120.51;1761344;80;21046;-41
2022/10/19 11:25:48;;;;;;;1.95;1.60;;;;;;;15.67;50.25;99111.06;1710505;81;23166;-42
2022/10/19 11:28:26;;;;;;;3.20;1.80;;;;;;;15.75;49.66;99109.05;1754769;81;21483;-41
2022/10/19 11:31:17;;;;;;;3.00;1.52;;;;;;;15.68;48.76;99107.16;1752208;80;21008;-41
2022/10/19 11:34:04;;;;;;;2.72;1.65;;;;;;;15.56;49.44;99113.84;1699606;84;21655;-41
2022/10/19 11:36:46;;;;;;;3.17;1.95;;;;;;;15.39;49.95;99104.36;1685103;85;21059;-41
2022/10/19 11:39:19;;;;;;;5.28;1.80;;;;;;;15.28;50.08;99104.98;1685927;85;21574;-41
2022/10/19 11:42:14;;;;;;;3.85;1.70;;;;;;;15.17;50.50;99102.28;1709839;83;21001;-41
2022/10/19 11:45:15;;;;;;;3.85;1.72;;;;;;;15.11;50.30;99094.30;1750517;81;21077;-41
2022/10/19 11:47:59;;;;;;;4.87;1.95;;;;;;;15.03;50.26;99093.56;1762921;80;21005;-41
2022/10/19 11:51:03;;;;;;;3.20;1.72;;;;;;;14.99;49.53;99087.92;1750389;80;21084;-41
2022/10/19 11:53:47;;;;;;;2.92;1.90;;;;;;;15.10;50.13;99078.50;1752276;80;21133;-41